Time;durP1;ratioP1;P1;durP2;ratioP2;P2;SDS_P1;SDS_P2;PMS_P1;PMS_P2;Temp;Humidity;BMP_temperature;BMP_pressure;BME280_temperature;BME280_humidity;BME280_pressure;Samples;Min_cycle;Max_cycle;Signal;HPM_P1;HPM_P2
2021/12/20 00:01:06;;;;;;;10.60;6.35;;;;;;;9.89;69.18;100716.38;4981100;28;20046;-81
2021/12/20 00:03:51;;;;;;;15.90;8.55;;;;;;;9.76;65.14;100709.09;4985378;28;20073;-81
2021/12/20 00:06:36;;;;;;;;;;;;;;;10.09;68.78;100709.59;4986371;28;20416;-81
2021/12/20 00:09:21;;;;;;;13.50;8.88;;;;;;;9.91;68.08;100697.84;4985601;28;20407;-81
2021/12/20 00:12:06;;;;;;;8.68;5.82;;;;;;;10.03;67.18;100689.13;4989751;28;20061;-81
2021/12/20 00:14:51;;;;;;;11.57;7.95;;;;;;;10.01;68.42;100686.69;4987590;28;20050;-81
2021/12/20 00:17:37;;;;;;;11.40;5.95;;;;;;;10.02;67.59;100688.31;4990338;28;20066;-81
2021/12/20 00:20:21;;;;;;;10.85;6.50;;;;;;;10.05;67.91;100685.00;4985086;28;20407;-81
2021/12/20 00:23:08;;;;;;;16.05;8.85;;;;;;;10.22;68.67;100682.38;4994700;28;20051;-81
2021/12/20 00:25:53;;;;;;;13.13;7.65;;;;;;;10.19;69.28;100679.47;4987904;28;20049;-81
2021/12/20 00:28:38;;;;;;;14.88;9.10;;;;;;;10.22;69.85;100679.66;4990391;28;20049;-81
2021/12/20 00:31:23;;;;;;;11.15;8.23;;;;;;;10.30;68.41;100672.66;4989459;28;20057;-79
2021/12/20 00:34:08;;;;;;;9.55;6.00;;;;;;;10.30;67.49;100669.94;4987035;28;20047;-81
2021/12/20 00:37:01;;;;;;;15.18;8.85;;;;;;;10.39;64.85;100659.09;4990551;28;20538;-81
2021/12/20 00:42:58;;;;;;;14.70;8.18;;;;;;;10.23;63.48;100664.16;4986047;28;20105;-81
2021/12/20 00:45:43;;;;;;;17.73;10.35;;;;;;;10.36;65.14;100667.88;4988999;28;20061;-80
2021/12/20 00:48:28;;;;;;;11.60;6.35;;;;;;;10.17;59.76;100660.75;4987494;28;20050;-81
2021/12/20 00:51:13;;;;;;;11.60;7.90;;;;;;;10.20;64.30;100660.16;4985063;28;20050;-81
2021/12/20 00:53:58;;;;;;;;;;;;;;;10.29;65.87;100663.69;4987104;28;20050;-81
2021/12/20 00:56:42;;;;;;;8.85;6.05;;;;;;;10.45;67.65;100657.84;4984986;28;20383;-81
2021/12/20 00:59:27;;;;;;;7.93;4.93;;;;;;;10.45;69.27;100663.28;4983132;28;20408;-81
2021/12/20 01:02:12;;;;;;;11.88;6.93;;;;;;;10.46;69.80;100657.53;4987050;28;20069;-80
2021/12/20 01:04:58;;;;;;;;;;;;;;;10.51;71.90;100654.66;4984691;28;20423;-81
2021/12/20 01:07:42;;;;;;;9.07;5.47;;;;;;;10.48;71.73;100646.31;4984681;28;20395;-81
2021/12/20 01:10:29;;;;;;;7.35;4.72;;;;;;;10.59;71.17;100644.91;4989039;28;20415;-81
2021/12/20 01:13:16;;;;;;;9.50;6.43;;;;;;;10.59;69.20;100631.31;4987338;28;20049;-80
2021/12/20 01:16:04;;;;;;;12.38;7.22;;;;;;;10.67;68.82;100625.06;4985848;28;20053;-80
2021/12/20 01:18:48;;;;;;;12.40;6.18;;;;;;;10.69;69.70;100639.97;4988642;28;20049;-81
2021/12/20 01:21:33;;;;;;;6.38;4.90;;;;;;;10.73;68.65;100634.69;4986565;28;20054;-80
2021/12/20 01:24:18;;;;;;;9.40;5.50;;;;;;;10.78;69.53;100628.28;4984247;28;20054;-81
2021/12/20 01:27:03;;;;;;;8.85;6.50;;;;;;;10.75;66.92;100631.66;4989082;28;20054;-80
2021/12/20 01:29:47;;;;;;;8.00;5.28;;;;;;;10.84;68.64;100633.28;4984659;28;20515;-81
2021/12/20 01:32:32;;;;;;;9.52;5.47;;;;;;;10.77;67.75;100635.66;4985265;28;20051;-81
2021/12/20 01:35:19;;;;;;;8.98;5.53;;;;;;;10.79;69.21;100619.03;4988374;28;20119;-80
2021/12/20 01:38:04;;;;;;;11.38;6.82;;;;;;;10.55;67.15;100627.63;4987118;28;20423;-81
2021/12/20 01:40:49;;;;;;;14.60;7.70;;;;;;;10.78;68.20;100626.38;4992865;28;20031;-80
2021/12/20 01:43:34;;;;;;;;;;;;;;;10.69;66.91;100622.84;4987433;28;20050;-82
2021/12/20 01:46:20;;;;;;;15.38;8.15;;;;;;;10.40;65.73;100619.91;5000703;28;19914;-81
2021/12/20 01:49:09;;;;;;;13.13;7.47;;;;;;;10.71;69.64;100615.19;4991701;28;20050;-81
2021/12/20 01:52:10;;;;;;;10.60;6.97;;;;;;;10.81;69.45;100625.75;4993928;28;20050;-81
2021/12/20 01:54:55;;;;;;;13.30;8.02;;;;;;;10.79;68.82;100621.75;4977598;28;20053;-80
2021/12/20 01:57:41;;;;;;;8.45;5.60;;;;;;;10.57;65.22;100618.03;4986681;28;20050;-81
2021/12/20 02:00:28;;;;;;;12.30;6.07;;;;;;;10.52;64.17;100607.31;4985215;28;20049;-79
2021/12/20 02:03:13;;;;;;;16.13;9.02;;;;;;;10.64;66.27;100610.22;4975922;28;20047;-80
2021/12/20 02:05:59;;;;;;;8.77;5.70;;;;;;;10.77;68.33;100611.16;4982617;28;20047;-81
2021/12/20 02:08:45;;;;;;;12.52;6.72;;;;;;;10.89;68.49;100611.34;4986028;28;20049;-80
2021/12/20 02:11:29;;;;;;;11.13;6.50;;;;;;;10.80;66.33;100605.09;4985997;28;20054;-81
2021/12/20 02:14:16;;;;;;;9.52;4.72;;;;;;;10.80;67.58;100601.59;4983960;28;20306;-81
2021/12/20 02:17:01;;;;;;;9.55;6.25;;;;;;;10.88;68.47;100584.47;4986829;28;20049;-81
2021/12/20 02:19:46;;;;;;;;;;;;;;;10.92;68.45;100580.78;4983766;28;20042;-81
2021/12/20 02:22:30;;;;;;;14.32;7.47;;;;;;;10.90;66.21;100565.91;4983819;28;20399;-81
2021/12/20 02:25:15;;;;;;;8.10;5.35;;;;;;;11.12;67.86;100561.06;4986917;28;20050;-81
2021/12/20 02:28:05;;;;;;;;;;;;;;;11.27;66.52;100559.78;4986218;28;20054;-82
2021/12/20 02:36:55;;;;;;;11.35;5.82;;;;;;;11.19;66.72;100552.41;4987194;28;19918;-81
2021/12/20 02:40:04;;;;;;;10.40;6.45;;;;;;;11.01;66.68;100551.66;4985873;28;20050;-81
2021/12/20 02:42:51;;;;;;;8.85;5.32;;;;;;;10.89;63.53;100546.06;4988857;28;20041;-80
2021/12/20 02:45:37;;;;;;;11.50;6.05;;;;;;;10.95;66.30;100549.41;4984675;28;20058;-81
2021/12/20 02:48:22;;;;;;;7.47;5.25;;;;;;;11.02;68.01;100539.63;4987500;28;20053;-81
2021/12/20 02:51:06;;;;;;;11.77;6.75;;;;;;;10.95;66.00;100528.47;4985848;28;20050;-81
2021/12/20 02:53:53;;;;;;;;;;;;;;;10.92;66.52;100531.03;4984713;28;20045;-81
2021/12/20 02:56:39;;;;;;;10.50;6.43;;;;;;;10.81;63.60;100536.00;4988617;28;19914;-81
2021/12/20 02:59:24;;;;;;;10.52;6.65;;;;;;;10.82;65.55;100545.72;4985636;28;20053;-82
2021/12/20 03:02:10;;;;;;;10.27;5.65;;;;;;;10.86;65.90;100535.03;4977133;28;20046;-81
2021/12/20 03:04:55;;;;;;;8.25;5.65;;;;;;;10.91;65.97;100534.88;4987395;28;20043;-81
2021/12/20 03:07:49;;;;;;;8.55;4.43;;;;;;;10.81;65.14;100532.47;4985486;28;20045;-81
2021/12/20 03:10:39;;;;;;;12.40;6.00;;;;;;;10.81;64.40;100538.72;4973399;28;20419;-81
2021/12/20 03:13:24;;;;;;;7.80;4.80;;;;;;;10.87;66.96;100528.47;4984315;28;20049;-81
2021/12/20 03:16:09;;;;;;;;;;;;;;;10.97;67.68;100531.63;4977587;28;20046;-81
2021/12/20 03:18:53;;;;;;;10.48;4.70;;;;;;;10.82;65.14;100531.34;4973125;28;19918;-81
2021/12/20 03:21:38;;;;;;;7.07;3.88;;;;;;;10.54;61.72;100518.06;4991962;28;20635;-81
2021/12/20 03:24:23;;;;;;;8.52;3.72;;;;;;;10.29;61.81;100527.81;5005049;28;20053;-81
2021/12/20 03:27:08;;;;;;;9.07;4.18;;;;;;;10.27;61.65;100512.94;5004533;28;20077;-81
2021/12/20 03:29:53;;;;;;;6.63;3.90;;;;;;;10.27;61.10;100523.78;5003946;28;20046;-81
2021/12/20 03:32:38;;;;;;;;;;;;;;;10.40;65.86;100506.56;5005202;28;20053;-81
2021/12/20 03:35:22;;;;;;;9.57;5.07;;;;;;;10.64;66.15;100500.63;4984848;28;19914;-82
2021/12/20 03:38:08;;;;;;;;;;;;;;;10.75;66.20;100493.75;4986826;28;20438;-81
2021/12/20 03:40:53;;;;;;;7.93;4.68;;;;;;;10.68;66.15;100488.00;4984754;28;19910;-80
2021/12/20 03:43:37;;;;;;;7.72;4.57;;;;;;;10.76;65.30;100492.66;4983454;28;20065;-81
2021/12/20 03:46:22;;;;;;;;;;;;;;;10.82;64.97;100488.63;4981893;28;20057;-81
2021/12/20 03:49:08;;;;;;;7.75;4.28;;;;;;;10.68;61.93;100490.72;4981093;28;19914;-81
2021/12/20 03:51:53;;;;;;;12.40;5.85;;;;;;;10.64;62.14;100493.28;4979779;28;20638;-81
2021/12/20 03:54:38;;;;;;;7.25;4.60;;;;;;;10.57;60.40;100486.72;4976745;28;20045;-80
2021/12/20 03:57:23;;;;;;;9.35;4.63;;;;;;;10.64;62.73;100479.69;4984428;28;20046;-81
2021/12/20 04:00:12;;;;;;;7.65;4.43;;;;;;;10.74;65.29;100484.00;4980400;28;20054;-81
2021/12/20 04:03:02;;;;;;;8.32;5.07;;;;;;;10.78;65.72;100481.41;4979649;28;20054;-80
2021/12/20 04:05:47;;;;;;;8.85;5.40;;;;;;;10.79;65.30;100478.38;4984148;28;20107;-81
2021/12/20 04:08:32;;;;;;;7.05;3.58;;;;;;;10.87;66.70;100480.28;4982836;28;20612;-82
2021/12/20 04:11:18;;;;;;;9.52;4.88;;;;;;;10.92;66.59;100473.91;4982023;28;20054;-81
2021/12/20 04:14:02;;;;;;;;;;;;;;;10.91;65.57;100464.94;4986572;28;20057;-81
2021/12/20 04:16:47;;;;;;;11.13;6.00;;;;;;;10.79;63.29;100459.34;4984882;28;19914;-81
2021/12/20 04:19:31;;;;;;;8.40;4.80;;;;;;;10.78;64.93;100465.09;4982476;28;20073;-81
2021/12/20 04:22:18;;;;;;;10.68;5.68;;;;;;;10.77;63.86;100461.59;4986421;28;20511;-81
2021/12/20 04:25:03;;;;;;;10.18;5.30;;;;;;;10.87;66.12;100465.91;4983660;28;20058;-82
2021/12/20 04:27:49;;;;;;;7.40;4.55;;;;;;;10.91;65.94;100470.38;4981703;28;20054;-82
2021/12/20 04:30:34;;;;;;;6.20;3.95;;;;;;;11.06;67.44;100469.06;4985007;28;20065;-82
2021/12/20 04:33:19;;;;;;;5.65;3.92;;;;;;;10.97;65.85;100460.13;4980903;28;20046;-82
2021/12/20 04:36:04;;;;;;;4.95;3.33;;;;;;;10.95;66.64;100465.09;4980197;28;20050;-82
2021/12/20 04:38:48;;;;;;;10.13;4.30;;;;;;;10.89;65.67;100461.72;4983001;28;20419;-82
2021/12/20 04:41:33;;;;;;;;;;;;;;;11.00;65.88;100464.91;4983251;28;20046;-82
2021/12/20 04:44:18;;;;;;;7.47;4.82;;;;;;;10.92;64.81;100463.03;4979343;28;19914;-82
2021/12/20 04:47:03;;;;;;;;;;;;;;;10.83;62.02;100465.72;4984684;28;20050;-82
2021/12/20 04:49:47;;;;;;;12.02;6.47;;;;;;;10.82;63.61;100461.41;4981064;28;19914;-81
2021/12/20 04:52:32;;;;;;;;;;;;;;;10.84;61.43;100466.53;4982539;28;20057;-82
2021/12/20 04:55:17;;;;;;;9.52;5.90;;;;;;;10.84;58.24;100467.34;4988201;28;19914;-82
2021/12/20 04:58:03;;;;;;;;;;;;;;;10.63;53.31;100453.63;4986516;28;20050;-81
2021/12/20 05:00:48;;;;;;;13.73;7.30;;;;;;;10.55;49.03;100459.06;4984149;28;19914;-81
2021/12/20 05:03:33;;;;;;;13.82;6.97;;;;;;;10.37;49.64;100462.88;4981459;28;20046;-83
2021/12/20 05:06:18;;;;;;;;;;;;;;;10.69;58.92;100471.38;4986340;28;20045;-82
2021/12/20 05:09:04;;;;;;;5.63;4.03;;;;;;;10.85;61.73;100471.66;4984957;28;19914;-82
2021/12/20 05:11:57;;;;;;;11.35;5.45;;;;;;;10.85;60.69;100474.38;4988239;28;20061;-82
2021/12/20 05:14:44;;;;;;;13.75;7.05;;;;;;;10.81;58.64;100472.63;4982678;28;20065;-81
2021/12/20 05:17:30;;;;;;;17.73;7.85;;;;;;;10.78;58.13;100474.06;4965548;28;20047;-82
2021/12/20 05:20:15;;;;;;;5.47;3.97;;;;;;;10.68;56.06;100469.75;4964648;28;20051;-81
2021/12/20 05:23:01;;;;;;;12.98;7.93;;;;;;;10.70;55.92;100464.00;4969031;28;20038;-82
2021/12/20 05:25:46;;;;;;;14.18;7.03;;;;;;;10.68;58.80;100468.97;4984538;28;20050;-81
2021/12/20 05:28:31;;;;;;;9.90;6.40;;;;;;;10.75;59.93;100485.59;4985392;28;20081;-83
2021/12/20 05:31:16;;;;;;;8.80;6.03;;;;;;;10.52;53.70;100497.75;4998435;28;20049;-80
2021/12/20 05:34:01;;;;;;;11.73;7.90;;;;;;;10.29;53.15;100488.97;4995063;28;20066;-82
2021/12/20 05:36:46;;;;;;;10.27;7.57;;;;;;;10.19;47.75;100484.63;4988089;28;20092;-81
2021/12/20 05:39:31;;;;;;;13.48;7.47;;;;;;;10.01;52.93;100485.69;4979049;28;20046;-80
2021/12/20 05:42:15;;;;;;;16.23;10.10;;;;;;;9.70;50.32;100491.19;4980689;28;20049;-81
2021/12/20 05:45:00;;;;;;;10.35;7.20;;;;;;;9.47;46.81;100489.69;4979305;28;20047;-81
2021/12/20 05:47:46;;;;;;;13.50;9.73;;;;;;;9.54;45.65;100479.19;4993523;28;20049;-81
2021/12/20 05:50:31;;;;;;;10.90;7.60;;;;;;;8.97;44.63;100486.41;4987625;28;20044;-82
2021/12/20 05:53:15;;;;;;;9.05;6.50;;;;;;;9.22;45.15;100485.75;4991774;28;20057;-80
2021/12/20 05:56:00;;;;;;;11.60;8.37;;;;;;;8.20;47.03;100515.56;4988350;28;20448;-81
2021/12/20 05:58:45;;;;;;;10.30;9.30;;;;;;;8.42;54.42;100537.31;4986905;28;20833;-81
2021/12/20 06:01:29;;;;;;;12.63;6.93;;;;;;;8.45;53.45;100537.50;4977869;28;20049;-82
2021/12/20 06:04:14;;;;;;;10.63;7.32;;;;;;;8.73;48.60;100548.28;4984942;28;20054;-82
2021/12/20 06:06:59;;;;;;;13.68;10.27;;;;;;;8.35;52.53;100548.56;4981517;28;20054;-82
2021/12/20 06:09:44;;;;;;;14.43;8.30;;;;;;;7.62;53.29;100541.34;4969982;28;20066;-81
2021/12/20 06:12:29;;;;;;;13.05;8.10;;;;;;;7.72;50.72;100537.63;4987359;28;20065;-81
2021/12/20 06:15:14;;;;;;;15.27;9.40;;;;;;;7.58;48.54;100542.25;4981867;28;20046;-81
2021/12/20 06:17:59;;;;;;;22.35;10.25;;;;;;;7.66;50.94;100539.66;4977454;28;20051;-81
2021/12/20 06:20:44;;;;;;;15.82;8.45;;;;;;;7.86;47.71;100551.19;4981836;28;20050;-80
2021/12/20 06:23:29;;;;;;;33.80;13.43;;;;;;;7.56;47.58;100549.88;4980304;28;20411;-81
2021/12/20 06:26:14;;;;;;;25.65;10.73;;;;;;;7.67;47.05;100545.84;4980147;28;20054;-79
2021/12/20 06:28:59;;;;;;;18.48;10.55;;;;;;;7.39;47.79;100557.75;4965643;28;20039;-82
2021/12/20 06:31:45;;;;;;;24.95;13.88;;;;;;;7.31;48.29;100568.16;4969193;28;20124;-83
2021/12/20 06:34:30;;;;;;;23.45;13.90;;;;;;;7.43;51.04;100570.38;4968263;28;20043;-83
2021/12/20 06:37:15;;;;;;;18.58;9.85;;;;;;;7.13;50.49;100565.50;4982693;28;20659;-82
2021/12/20 06:40:00;;;;;;;34.58;14.02;;;;;;;6.16;51.31;100574.19;4975050;28;20045;-83
2021/12/20 06:42:45;;;;;;;13.07;9.50;;;;;;;6.49;51.64;100574.31;4979097;28;20045;-82
2021/12/20 06:45:30;;;;;;;28.70;10.02;;;;;;;6.17;52.45;100577.72;4978905;28;20070;-82
2021/12/20 06:48:15;;;;;;;38.97;13.63;;;;;;;5.49;52.68;100583.28;4984140;28;20050;-83
2021/12/20 06:51:00;;;;;;;14.88;9.27;;;;;;;5.63;56.41;100586.13;4981132;28;20038;-82
2021/12/20 06:53:45;;;;;;;30.65;10.65;;;;;;;5.43;54.82;100596.03;4979174;28;20045;-83
2021/12/20 06:56:30;;;;;;;22.67;12.55;;;;;;;5.37;54.55;100599.84;4983194;28;20054;-82
2021/12/20 06:59:14;;;;;;;29.02;13.45;;;;;;;5.56;57.53;100613.41;4980867;28;20419;-82
2021/12/20 07:01:59;;;;;;;35.85;12.35;;;;;;;5.30;55.86;100622.81;4971327;28;20042;-82
2021/12/20 07:04:44;;;;;;;21.95;10.95;;;;;;;5.22;55.91;100629.63;4982229;28;20042;-83
2021/12/20 07:07:29;;;;;;;28.48;10.77;;;;;;;4.96;57.52;100623.63;4982007;28;20049;-83
2021/12/20 07:10:14;;;;;;;38.78;13.90;;;;;;;5.33;55.89;100644.66;4983479;28;20055;-82
2021/12/20 07:12:59;;;;;;;63.03;12.75;;;;;;;4.67;59.27;100625.44;4974995;28;20039;-83
2021/12/20 07:15:44;;;;;;;50.55;15.30;;;;;;;4.96;60.71;100636.28;4978839;28;20514;-81
2021/12/20 07:18:29;;;;;;;50.17;14.40;;;;;;;5.66;64.18;100648.38;4972781;28;20055;-83
2021/12/20 07:21:14;;;;;;;47.58;14.07;;;;;;;5.24;58.44;100645.50;4970067;28;20607;-83
2021/12/20 07:23:59;;;;;;;49.60;14.65;;;;;;;4.93;59.18;100648.41;4967480;28;20041;-83
2021/12/20 07:26:44;;;;;;;47.30;15.20;;;;;;;4.94;58.76;100647.34;4970903;28;20123;-83
2021/12/20 07:29:29;;;;;;;37.47;12.68;;;;;;;5.16;59.17;100657.72;4977655;28;20039;-83
2021/12/20 07:32:14;;;;;;;59.58;12.77;;;;;;;6.30;68.57;100669.59;4976802;28;20039;-83
2021/12/20 07:34:59;;;;;;;39.92;11.82;;;;;;;5.78;65.95;100675.00;4982034;28;20061;-83
2021/12/20 07:37:44;;;;;;;29.60;13.23;;;;;;;5.05;58.81;100672.31;4973032;28;20047;-83
2021/12/20 07:40:30;;;;;;;35.63;14.32;;;;;;;4.85;59.03;100672.44;4976723;28;20050;-82
2021/12/20 07:43:17;;;;;;;75.22;16.70;;;;;;;4.54;60.05;100682.56;4973567;28;20054;-82
2021/12/20 07:46:01;;;;;;;36.15;15.68;;;;;;;4.55;62.03;100686.88;4976577;28;20065;-83
2021/12/20 07:48:48;;;;;;;26.42;12.70;;;;;;;4.53;59.80;100683.63;4973239;28;20042;-83
2021/12/20 07:51:33;;;;;;;43.13;18.27;;;;;;;4.07;62.27;100686.47;4973636;28;20416;-80
2021/12/20 07:54:19;;;;;;;24.58;11.90;;;;;;;4.95;64.54;100704.72;4974837;28;20049;-84
2021/12/20 07:57:04;;;;;;;27.98;17.17;;;;;;;4.49;61.55;100704.13;4972524;28;20423;-83
2021/12/20 07:59:49;;;;;;;28.50;14.82;;;;;;;4.55;61.69;100711.91;4969381;28;20050;-83
2021/12/20 08:02:34;;;;;;;33.63;17.60;;;;;;;4.19;60.90;100707.72;4967236;28;20046;-84
2021/12/20 08:05:20;;;;;;;27.48;16.67;;;;;;;4.20;61.68;100723.59;4973641;28;20511;-84
2021/12/20 08:08:06;;;;;;;34.60;18.73;;;;;;;3.80;62.32;100719.09;4976471;28;20042;-83
2021/12/20 08:10:50;;;;;;;33.53;17.73;;;;;;;3.99;62.38;100722.00;4976199;28;20058;-86
2021/12/20 08:13:44;;;;;;;24.38;14.52;;;;;;;4.12;62.72;100726.03;4969907;28;20049;-84
2021/12/20 08:16:29;;;;;;;31.33;19.40;;;;;;;4.25;61.80;100720.91;4977319;28;20069;-81
2021/12/20 08:19:14;;;;;;;27.42;16.05;;;;;;;4.02;62.24;100720.66;4964496;28;20054;-81
2021/12/20 08:21:58;;;;;;;27.15;16.58;;;;;;;4.69;59.92;100741.75;4982836;28;20398;-80
2021/12/20 08:24:43;;;;;;;38.15;17.20;;;;;;;4.23;61.96;100744.56;4978448;28;20038;-83
2021/12/20 08:27:28;;;;;;;27.93;14.07;;;;;;;4.08;62.77;100741.09;4991134;28;20042;-82
2021/12/20 08:30:13;;;;;;;27.65;14.57;;;;;;;4.81;62.58;100758.41;4987962;28;20424;-82
2021/12/20 08:32:58;;;;;;;34.03;18.45;;;;;;;5.15;61.03;100771.97;4982156;28;20522;-82
2021/12/20 08:35:43;;;;;;;28.60;16.90;;;;;;;3.90;62.61;100780.13;4981674;28;20409;-78
2021/12/20 08:38:28;;;;;;;36.60;16.23;;;;;;;4.32;63.21;100779.03;4977676;28;20423;-77
2021/12/20 08:41:13;;;;;;;33.33;16.92;;;;;;;4.16;62.99;100787.13;4975446;28;20042;-77
2021/12/20 08:43:58;;;;;;;22.77;14.00;;;;;;;3.67;64.00;100792.22;4983866;28;20050;-77
2021/12/20 08:46:43;;;;;;;32.08;16.00;;;;;;;2.97;67.56;100801.72;4979723;28;20043;-77
2021/12/20 08:49:28;;;;;;;31.95;17.17;;;;;;;2.77;67.12;100809.69;4975008;28;20038;-75
2021/12/20 08:52:14;;;;;;;31.15;17.58;;;;;;;2.18;69.72;100803.69;4995123;28;20047;-77
2021/12/20 08:54:58;;;;;;;39.00;21.45;;;;;;;1.99;71.29;100799.78;4996486;28;20046;-77
2021/12/20 08:57:44;;;;;;;39.05;21.13;;;;;;;2.49;68.17;100826.97;4976885;28;20045;-76
2021/12/20 09:00:32;;;;;;;43.53;23.65;;;;;;;1.79;71.74;100827.22;4970778;28;20503;-79
2021/12/20 09:03:17;;;;;;;47.20;22.83;;;;;;;2.70;68.91;100840.50;4978218;28;20503;-78
2021/12/20 09:06:02;;;;;;;38.45;21.08;;;;;;;2.47;69.17;100839.84;4974232;28;20047;-78
2021/12/20 09:08:47;;;;;;;31.25;18.20;;;;;;;2.18;70.95;100838.56;4967472;28;20046;-79
2021/12/20 09:11:32;;;;;;;36.05;19.02;;;;;;;2.13;71.36;100850.03;4983184;28;20045;-79
2021/12/20 09:14:16;;;;;;;33.10;18.30;;;;;;;2.52;70.02;100842.56;4975222;28;20058;-77
2021/12/20 09:17:02;;;;;;;32.97;18.80;;;;;;;2.97;69.04;100847.38;4977027;28;20043;-80
2021/12/20 09:19:47;;;;;;;41.10;21.77;;;;;;;3.10;68.22;100859.50;4981333;28;20042;-80
2021/12/20 09:22:39;;;;;;;31.25;16.70;;;;;;;3.23;67.93;100860.91;4978559;28;20412;-77
2021/12/20 09:25:26;;;;;;;42.28;21.08;;;;;;;3.66;67.03;100860.50;4980367;28;20042;-77
2021/12/20 09:28:12;;;;;;;39.10;20.63;;;;;;;3.77;66.52;100870.22;4979522;28;20047;-77
2021/12/20 09:30:57;;;;;;;36.65;19.70;;;;;;;3.85;67.03;100863.50;4970048;28;20061;-76
2021/12/20 09:33:42;;;;;;;34.67;19.50;;;;;;;4.04;67.29;100878.06;4984527;28;20503;-78
2021/12/20 09:36:32;;;;;;;31.15;15.27;;;;;;;4.06;66.97;100881.31;4973687;28;20396;-77
2021/12/20 09:39:18;;;;;;;36.83;19.95;;;;;;;4.29;65.54;100890.72;4967113;28;20420;-77
2021/12/20 09:42:03;;;;;;;34.25;19.38;;;;;;;4.41;65.77;100891.25;4954951;28;20043;-77
2021/12/20 09:44:49;;;;;;;37.10;20.58;;;;;;;4.36;65.63;100896.66;4959103;28;20047;-77
2021/12/20 09:47:34;;;;;;;34.95;18.90;;;;;;;4.24;65.88;100904.97;4957854;28;20043;-77
2021/12/20 09:50:19;;;;;;;26.60;14.75;;;;;;;4.31;65.49;100910.09;4955482;28;20054;-77
2021/12/20 09:53:07;;;;;;;20.23;12.80;;;;;;;4.51;65.52;100906.59;4959679;28;20531;-77
2021/12/20 09:55:52;;;;;;;30.50;17.25;;;;;;;4.43;65.84;100901.75;4957828;28;20501;-77
2021/12/20 09:58:40;;;;;;;23.58;13.75;;;;;;;4.58;65.80;100912.50;4955381;28;20050;-77
2021/12/20 10:01:28;;;;;;;31.23;16.40;;;;;;;4.46;65.49;100917.38;4959419;28;20125;-77
2021/12/20 10:04:13;;;;;;;31.65;16.30;;;;;;;4.60;64.86;100927.31;4957490;28;20039;-77
2021/12/20 10:06:59;;;;;;;22.75;13.45;;;;;;;4.59;65.57;100923.00;4955546;28;20043;-77
2021/12/20 10:09:47;;;;;;;30.08;17.70;;;;;;;4.59;66.04;100914.94;4956946;28;20054;-77
2021/12/20 10:12:32;;;;;;;34.22;17.13;;;;;;;4.63;66.15;100912.50;4957343;28;20055;-76
2021/12/20 10:15:17;;;;;;;26.90;15.52;;;;;;;4.83;65.44;100917.88;4955083;28;20043;-77
2021/12/20 10:18:02;;;;;;;25.60;14.43;;;;;;;4.79;65.92;100908.72;4959391;28;20043;-77
2021/12/20 10:20:52;;;;;;;25.10;14.93;;;;;;;4.86;66.09;100920.03;4956047;28;20039;-77
2021/12/20 10:23:41;;;;;;;43.70;19.42;;;;;;;5.04;65.77;100919.44;4954924;28;20038;-77
2021/12/20 10:26:26;;;;;;;31.88;18.08;;;;;;;4.99;66.16;100924.03;4959157;28;20054;-77
2021/12/20 10:29:19;;;;;;;29.70;16.57;;;;;;;5.16;66.00;100924.53;4957205;28;20051;-77
2021/12/20 10:32:04;;;;;;;33.67;18.53;;;;;;;5.28;65.22;100924.25;4954664;28;20047;-77
2021/12/20 10:34:49;;;;;;;;;;;;;;;5.29;64.72;100929.34;4958999;28;20047;-77
2021/12/20 10:37:39;;;;;;;21.55;12.38;;;;;;;5.00;66.18;100937.25;4957229;28;19914;-77
2021/12/20 10:40:26;;;;;;;24.83;14.07;;;;;;;5.28;66.29;100929.63;4939969;29;20050;-77
2021/12/20 10:43:14;;;;;;;24.50;13.00;;;;;;;5.59;66.37;100925.72;4963797;28;20396;-78
2021/12/20 10:46:08;;;;;;;25.85;11.73;;;;;;;5.50;67.94;100920.09;4972572;28;20503;-77
2021/12/20 10:49:08;;;;;;;22.55;11.60;;;;;;;5.71;67.15;100915.41;4986713;28;20046;-77
2021/12/20 10:51:54;;;;;;;19.90;11.07;;;;;;;5.75;68.15;100915.66;4986925;28;20049;-77
2021/12/20 10:54:43;;;;;;;22.70;11.35;;;;;;;5.89;68.10;100914.03;4976894;28;20042;-78
2021/12/20 10:57:31;;;;;;;19.63;12.10;;;;;;;5.85;67.98;100916.41;4972599;28;20035;-77
2021/12/20 11:00:21;;;;;;;21.27;11.95;;;;;;;5.96;68.43;100912.59;4973849;28;20043;-77
2021/12/20 11:03:26;;;;;;;18.08;11.40;;;;;;;6.17;67.49;100917.88;4973221;28;20049;-77
2021/12/20 11:09:19;;;;;;;18.02;10.80;;;;;;;6.34;67.82;100899.41;4971290;28;20051;-77
2021/12/20 11:12:07;;;;;;;19.15;10.88;;;;;;;6.50;67.08;100895.47;4960239;28;20405;-81
2021/12/20 11:14:56;;;;;;;19.40;10.70;;;;;;;6.68;66.97;100896.66;4979017;28;20059;-77
2021/12/20 11:17:44;;;;;;;17.70;10.95;;;;;;;6.81;66.15;100896.78;4977254;28;20038;-77
2021/12/20 11:20:28;;;;;;;22.33;12.07;;;;;;;6.89;65.81;100900.78;4975076;28;20150;-77
2021/12/20 11:23:25;;;;;;;16.35;9.10;;;;;;;7.17;66.17;100899.91;4975703;28;20038;-77
2021/12/20 11:26:10;;;;;;;23.38;13.23;;;;;;;7.30;65.08;100915.47;4973672;28;20049;-79
2021/12/20 11:28:56;;;;;;;24.13;13.68;;;;;;;7.29;65.04;100910.34;4973679;28;20246;-77
2021/12/20 11:31:41;;;;;;;35.08;19.95;;;;;;;7.32;64.49;100912.47;4964899;28;20411;-77
2021/12/20 11:34:26;;;;;;;29.00;15.38;;;;;;;7.35;64.89;100922.72;4962165;28;20179;-78
2021/12/20 11:37:15;;;;;;;46.22;21.67;;;;;;;7.47;63.29;100931.22;4973829;28;20429;-77
2021/12/20 11:40:02;;;;;;;35.72;21.50;;;;;;;7.46;62.85;100924.22;4974451;28;20042;-77
2021/12/20 11:42:50;;;;;;;39.83;19.73;;;;;;;7.59;62.34;100928.91;4971154;28;20034;-77
2021/12/20 11:45:35;;;;;;;35.42;20.83;;;;;;;7.59;62.48;100923.50;4976793;28;20394;-78
2021/12/20 11:48:22;;;;;;;31.70;16.55;;;;;;;7.70;62.03;100930.41;4979127;28;20042;-77
2021/12/20 11:51:07;;;;;;;48.97;23.30;;;;;;;7.60;62.65;100917.00;4984242;28;20042;-79
2021/12/20 11:53:52;;;;;;;42.50;23.42;;;;;;;7.66;62.53;100926.66;4974687;28;20527;-78
2021/12/20 11:56:38;;;;;;;33.97;17.75;;;;;;;7.76;61.89;100920.31;4976984;28;20043;-79
2021/12/20 11:59:52;;;;;;;32.05;18.65;;;;;;;7.73;62.89;100923.59;4973309;28;20046;-79
2021/12/20 12:02:43;;;;;;;40.63;22.33;;;;;;;7.82;62.46;100923.75;4974416;28;20035;-79
2021/12/20 12:05:38;;;;;;;44.67;21.08;;;;;;;8.03;61.42;100919.66;4987309;28;20422;-80
2021/12/20 12:08:33;;;;;;;43.23;23.47;;;;;;;8.10;61.90;100914.69;4986711;28;20031;-80
2021/12/20 12:11:17;;;;;;;37.38;20.25;;;;;;;8.08;62.23;100920.38;4984282;28;20047;-79
2021/12/20 12:14:08;;;;;;;32.55;19.13;;;;;;;8.15;62.22;100920.81;4973951;28;20057;-79
2021/12/20 12:17:08;;;;;;;15.23;9.32;;;;;;;8.64;58.11;100916.00;4984372;28;20054;-78
2021/12/20 12:19:53;;;;;;;11.40;7.82;;;;;;;8.78;57.15;100920.38;4982112;28;20053;-79
2021/12/20 12:22:42;;;;;;;44.45;8.05;;;;;;;9.02;55.22;100906.66;4985153;28;20418;-79
2021/12/20 12:25:40;;;;;;;16.52;6.47;;;;;;;9.20;54.71;100905.75;4987146;28;20054;-80
2021/12/20 12:28:46;;;;;;;9.82;6.20;;;;;;;9.31;53.54;100904.44;4979188;28;20045;-79
2021/12/20 12:32:01;;;;;;;11.05;6.18;;;;;;;9.45;54.24;100909.88;4982390;28;20050;-79
2021/12/20 12:34:47;;;;;;;12.07;6.03;;;;;;;9.48;53.91;100903.03;4985099;28;20049;-78
2021/12/20 12:37:37;;;;;;;10.15;5.05;;;;;;;9.54;54.34;100908.06;4992748;28;20041;-80
2021/12/20 12:40:25;;;;;;;11.85;6.90;;;;;;;9.63;53.36;100894.56;4974163;28;20057;-79
2021/12/20 12:43:10;;;;;;;10.15;6.20;;;;;;;9.70;52.84;100905.84;4978703;28;20045;-77
2021/12/20 12:45:59;;;;;;;10.70;4.78;;;;;;;9.77;52.46;100903.50;4981137;28;20069;-80
2021/12/20 12:48:49;;;;;;;6.90;5.18;;;;;;;9.78;52.21;100900.50;4975085;28;20049;-80
2021/12/20 12:51:33;;;;;;;13.02;5.07;;;;;;;9.90;51.12;100891.00;4976517;28;20050;-80
2021/12/20 12:54:41;;;;;;;6.72;3.88;;;;;;;9.99;50.96;100900.03;4971132;28;20050;-79
2021/12/20 12:57:27;;;;;;;9.90;5.45;;;;;;;10.00;50.35;100899.72;4983258;28;20427;-80
2021/12/20 13:00:31;;;;;;;9.43;4.75;;;;;;;10.09;50.01;100903.31;4982453;28;20046;-79
2021/12/20 13:03:17;;;;;;;10.32;5.45;;;;;;;10.15;50.15;100904.00;4983713;28;20070;-80
2021/12/20 13:06:01;;;;;;;7.80;3.40;;;;;;;10.26;50.25;100903.47;4961344;28;20413;-79